Time;durP1;ratioP1;P1;durP2;ratioP2;P2;SDS_P1;SDS_P2;PMS_P1;PMS_P2;Temp;Humidity;BMP_temperature;BMP_pressure;BME280_temperature;BME280_humidity;BME280_pressure;Samples;Min_cycle;Max_cycle;Signal;HPM_P1;HPM_P2
2023/01/13 00:00:22;;;;;;;0.50;0.40;;;;;;;12.89;71.67;100104.88;4934910;28;97307;-71
2023/01/13 00:02:50;;;;;;;2.55;0.30;;;;;;;13.07;71.23;100103.00;4935899;28;96961;-71
2023/01/13 00:05:17;;;;;;;0.60;0.40;;;;;;;13.12;71.29;100108.94;4934559;28;99235;-71
2023/01/13 00:07:45;;;;;;;1.10;0.43;;;;;;;13.02;71.32;100105.91;4933155;28;99201;-71
2023/01/13 00:10:11;;;;;;;1.10;0.20;;;;;;;13.14;70.83;100102.59;4934804;28;99211;-72
2023/01/13 00:12:40;;;;;;;0.70;0.30;;;;;;;13.27;70.58;100109.88;4931286;28;97861;-72
2023/01/13 00:15:07;;;;;;;2.80;0.32;;;;;;;13.27;70.34;100115.19;4929433;28;99204;-71
2023/01/13 00:17:34;;;;;;;0.65;0.40;;;;;;;13.16;70.71;100111.34;4932445;28;99218;-71
2023/01/13 00:20:02;;;;;;;0.30;0.20;;;;;;;13.40;70.00;100100.28;4934721;28;96851;-71
2023/01/13 00:22:28;;;;;;;0.28;0.20;;;;;;;13.45;69.35;100124.78;4930445;28;96819;-72
2023/01/13 00:24:57;;;;;;;0.55;0.20;;;;;;;13.47;69.12;100102.50;4923001;28;99391;-71
2023/01/13 00:27:24;;;;;;;1.58;0.32;;;;;;;13.32;69.56;100114.00;4924319;28;99322;-70
2023/01/13 00:29:50;;;;;;;0.40;0.30;;;;;;;13.24;69.95;100104.75;4929322;28;97654;-72
2023/01/13 00:32:16;;;;;;;0.43;0.20;;;;;;;13.27;69.94;100107.22;4930638;28;96939;-72
2023/01/13 00:34:43;;;;;;;0.38;0.20;;;;;;;13.18;70.03;100097.16;4933654;28;99085;-72
2023/01/13 00:37:13;;;;;;;0.45;0.20;;;;;;;13.10;70.38;100093.09;4939275;28;99070;-72
2023/01/13 00:39:40;;;;;;;0.80;0.20;;;;;;;13.06;70.93;100106.63;4934889;28;98086;-71
2023/01/13 00:44:51;;;;;;;0.75;0.17;;;;;;;13.19;69.83;100094.41;4929551;28;97218;-70
2023/01/13 00:47:17;;;;;;;0.73;0.30;;;;;;;13.23;69.92;100098.59;4930293;28;99249;-71
2023/01/13 00:49:44;;;;;;;0.38;0.30;;;;;;;13.30;69.41;100101.75;4930831;28;98269;-72
2023/01/13 00:52:12;;;;;;;1.65;0.32;;;;;;;13.52;68.81;100105.72;4937117;28;98344;-71
2023/01/13 00:54:39;;;;;;;0.60;0.15;;;;;;;13.54;68.49;100100.34;4941223;28;99068;-73
2023/01/13 00:57:05;;;;;;;0.20;0.13;;;;;;;13.59;68.27;100098.28;4930223;28;97692;-71
2023/01/13 00:59:31;;;;;;;2.38;0.20;;;;;;;13.68;67.83;100096.88;4930241;28;96963;-70
2023/01/13 01:01:58;;;;;;;0.30;0.20;;;;;;;13.62;67.88;100103.41;4926468;28;97897;-72
2023/01/13 01:04:24;;;;;;;0.20;0.20;;;;;;;13.57;67.91;100105.50;4926338;28;100631;-72
2023/01/13 01:06:50;;;;;;;3.30;0.20;;;;;;;13.73;67.27;100108.09;4931685;28;100664;-72
2023/01/13 01:09:18;;;;;;;0.85;0.20;;;;;;;13.57;67.60;100100.19;4933498;28;96823;-72
2023/01/13 01:11:45;;;;;;;0.90;0.28;;;;;;;13.46;68.29;100106.09;4936606;28;97611;-72
2023/01/13 01:14:13;;;;;;;0.85;0.17;;;;;;;13.45;67.87;100108.84;4932191;28;98908;-70
2023/01/13 01:16:41;;;;;;;0.63;0.20;;;;;;;13.54;67.76;100103.00;4931571;28;101469;-72
2023/01/13 01:19:08;;;;;;;0.35;0.20;;;;;;;13.61;67.34;100106.16;4929841;28;96821;-72
2023/01/13 01:21:35;;;;;;;0.98;0.30;;;;;;;13.67;66.91;100104.00;4929860;28;97047;-72
2023/01/13 01:24:03;;;;;;;0.90;0.30;;;;;;;13.58;66.93;100099.25;4938472;28;98818;-71
2023/01/13 01:26:31;;;;;;;1.27;0.40;;;;;;;13.53;67.34;100102.13;4933920;28;98870;-70
2023/01/13 01:28:58;;;;;;;0.20;0.13;;;;;;;13.67;66.75;100104.00;4930801;28;97028;-72
2023/01/13 01:31:26;;;;;;;0.73;0.30;;;;;;;13.86;66.08;100095.81;4934287;28;97055;-72
2023/01/13 01:33:54;;;;;;;0.30;0.30;;;;;;;13.83;66.20;100106.63;4930209;28;99157;-70
2023/01/13 01:36:22;;;;;;;1.25;0.20;;;;;;;13.60;66.96;100105.28;4941714;28;99330;-71
2023/01/13 01:38:50;;;;;;;0.80;0.20;;;;;;;13.65;66.25;100092.63;4936181;28;96778;-71
2023/01/13 01:41:18;;;;;;;0.90;0.30;;;;;;;13.61;66.39;100095.53;4930639;28;97048;-71
2023/01/13 01:43:58;;;;;;;1.02;0.10;;;;;;;13.62;66.31;100097.25;4927417;28;98906;-72
2023/01/13 01:46:25;;;;;;;0.77;0.30;;;;;;;13.69;66.32;100094.16;4929368;28;98844;-72
2023/01/13 01:48:52;;;;;;;1.08;0.30;;;;;;;13.74;66.09;100099.19;4931082;28;96953;-72
2023/01/13 01:51:19;;;;;;;1.45;0.40;;;;;;;13.79;65.37;100097.97;4929351;28;96968;-72
2023/01/13 01:53:46;;;;;;;1.70;0.20;;;;;;;13.93;65.12;100090.03;4929329;28;100667;-73
2023/01/13 01:56:13;;;;;;;0.32;0.20;;;;;;;13.83;64.63;100080.06;4934960;28;98830;-71
2023/01/13 01:58:46;;;;;;;0.70;0.20;;;;;;;13.68;65.25;100078.31;4930055;28;96661;-71
2023/01/13 02:01:14;;;;;;;1.17;0.30;;;;;;;13.77;65.36;100083.94;4925338;28;97394;-72
2023/01/13 02:03:45;;;;;;;0.25;0.10;;;;;;;13.90;64.83;100078.75;4924079;28;99074;-71
2023/01/13 02:06:13;;;;;;;0.80;0.20;;;;;;;13.81;64.72;100080.16;4926017;28;99793;-71
2023/01/13 02:08:40;;;;;;;0.30;0.20;;;;;;;13.92;64.45;100075.03;4926294;28;96829;-70
2023/01/13 02:12:28;;;;;;;1.65;0.13;;;;;;;13.94;64.12;100078.47;4939920;28;96980;-71
2023/01/13 02:13:53;;;;;;;2.67;0.20;;;;;;;14.03;63.86;100062.94;4931583;28;99090;-72
2023/01/13 02:16:23;;;;;;;;;;;;;;;13.87;64.31;100079.78;4933298;28;97499;-71
2023/01/13 02:18:56;;;;;;;0.75;0.20;;;;;;;13.89;64.15;100066.41;4936251;28;96745;-71
2023/01/13 02:21:58;;;;;;;0.70;0.20;;;;;;;13.72;64.73;100069.22;4926825;28;97402;-70
2023/01/13 02:24:59;;;;;;;0.30;0.20;;;;;;;13.51;65.29;100064.22;4932371;28;99106;-71
2023/01/13 02:27:40;;;;;;;1.27;0.20;;;;;;;13.46;65.51;100054.81;4928566;28;98997;-71
2023/01/13 02:33:13;;;;;;;0.60;0.30;;;;;;;13.73;64.61;100060.28;4933969;28;97376;-70
2023/01/13 02:35:48;;;;;;;0.82;0.13;;;;;;;13.68;64.76;100065.88;4928671;28;97859;-71
2023/01/13 02:38:19;;;;;;;0.10;0.10;;;;;;;13.72;64.35;100056.78;4937452;28;99119;-71
2023/01/13 02:40:48;;;;;;;0.28;0.20;;;;;;;13.72;64.43;100056.78;4929181;28;96804;-71
2023/01/13 02:46:13;;;;;;;0.68;0.20;;;;;;;13.86;63.69;100054.16;4933164;28;97176;-71
2023/01/13 02:48:41;;;;;;;0.32;0.22;;;;;;;13.73;64.37;100052.34;4936387;28;99290;-71
2023/01/13 02:51:13;;;;;;;0.22;0.10;;;;;;;13.82;63.83;100060.63;4936225;28;97329;-71
2023/01/13 02:53:44;;;;;;;2.50;0.20;;;;;;;13.98;63.20;100054.41;4936068;28;97377;-70
2023/01/13 02:56:13;;;;;;;1.08;0.30;;;;;;;13.93;63.38;100052.84;4935775;28;99177;-70
2023/01/13 02:58:42;;;;;;;0.20;0.20;;;;;;;13.98;63.21;100054.41;4936667;28;100209;-69
2023/01/13 03:01:09;;;;;;;4.53;0.20;;;;;;;13.86;62.86;100051.50;4938383;28;96945;-71
2023/01/13 03:03:36;;;;;;;0.35;0.10;;;;;;;13.73;63.77;100050.53;4931542;28;97512;-69
2023/01/13 03:06:17;;;;;;;0.38;0.10;;;;;;;13.74;64.01;100046.09;4931304;28;99061;-71
2023/01/13 03:08:48;;;;;;;0.13;0.13;;;;;;;13.89;63.33;100048.69;4925104;28;99261;-73
2023/01/13 03:11:16;;;;;;;0.65;0.28;;;;;;;13.90;63.08;100047.75;4925316;28;96763;-70
2023/01/13 03:14:12;;;;;;;0.10;0.10;;;;;;;13.79;63.33;100036.88;4936384;28;97483;-71
2023/01/13 03:16:55;;;;;;;0.15;0.10;;;;;;;13.65;63.63;100026.25;4929060;28;99160;-72
2023/01/13 03:19:30;;;;;;;0.20;0.10;;;;;;;13.85;62.87;100023.25;4926839;28;98828;-70
2023/01/13 03:22:02;;;;;;;0.30;0.05;;;;;;;13.82;63.00;100034.06;4938942;28;97208;-70
2023/01/13 03:24:36;;;;;;;0.22;0.20;;;;;;;13.76;63.19;100030.91;4930010;28;96893;-70
2023/01/13 03:27:08;;;;;;;1.20;0.52;;;;;;;13.73;63.32;100029.28;4923545;28;99068;-72
2023/01/13 03:29:40;;;;;;;1.25;0.10;;;;;;;13.70;63.03;100037.47;4929624;28;97763;-71
2023/01/13 03:32:12;;;;;;;1.10;0.20;;;;;;;13.84;62.73;100031.31;4921392;28;97550;-71
2023/01/13 03:34:44;;;;;;;1.02;0.10;;;;;;;13.76;63.11;100038.88;4929826;28;97415;-71
2023/01/13 03:37:14;;;;;;;0.40;0.20;;;;;;;13.80;63.15;100025.31;4934565;28;97945;-71
2023/01/13 03:39:46;;;;;;;1.17;0.10;;;;;;;13.84;63.00;100037.50;4916959;28;100571;-72
2023/01/13 03:42:18;;;;;;;1.30;0.20;;;;;;;13.92;62.47;100031.69;4922183;28;97829;-72
2023/01/13 03:44:48;;;;;;;0.30;0.10;;;;;;;13.79;62.96;100030.72;4927529;28;96906;-72
2023/01/13 03:47:22;;;;;;;0.90;0.10;;;;;;;13.85;62.77;100033.88;4934211;28;99345;-72
2023/01/13 03:49:56;;;;;;;1.05;0.17;;;;;;;13.72;63.13;100024.91;4926243;28;98867;-70
2023/01/13 03:52:26;;;;;;;0.38;0.17;;;;;;;13.85;62.89;100030.34;4935240;28;96736;-71
2023/01/13 03:54:57;;;;;;;0.82;0.10;;;;;;;13.90;62.54;100036.25;4925479;28;97437;-71
2023/01/13 03:57:29;;;;;;;0.15;0.10;;;;;;;13.94;62.31;100035.97;4929096;28;98174;-72
2023/01/13 04:00:00;;;;;;;0.05;0.03;;;;;;;13.91;62.53;100041.47;4922051;28;98708;-71
2023/01/13 04:02:38;;;;;;;0.17;0.10;;;;;;;13.84;62.68;100032.19;4926634;28;97811;-70
2023/01/13 04:05:08;;;;;;;0.63;0.10;;;;;;;13.98;62.30;100029.53;4928173;28;97212;-72
2023/01/13 04:07:45;;;;;;;0.85;0.40;;;;;;;14.03;62.01;100029.25;4930351;28;99586;-71
2023/01/13 04:10:17;;;;;;;1.98;0.10;;;;;;;14.15;61.45;100019.69;4924704;28;98879;-71
2023/01/13 04:13:00;;;;;;;1.00;0.10;;;;;;;13.98;61.80;100024.22;4928044;28;97775;-71
2023/01/13 04:15:29;;;;;;;2.85;0.28;;;;;;;13.88;61.86;100020.41;4928143;28;97318;-72
2023/01/13 04:18:01;;;;;;;0.60;0.20;;;;;;;13.78;62.41;100021.06;4930539;28;99160;-70
2023/01/13 04:20:28;;;;;;;1.15;0.00;;;;;;;13.75;62.59;100011.47;4934022;28;99045;-71
2023/01/13 04:22:54;;;;;;;0.73;0.22;;;;;;;13.94;62.27;100027.16;4926180;28;98753;-71
2023/01/13 04:25:21;;;;;;;1.23;0.30;;;;;;;13.94;62.18;100030.66;4927252;28;97655;-70
2023/01/13 04:27:47;;;;;;;0.47;0.10;;;;;;;14.00;61.76;100036.53;4932223;28;100128;-70
2023/01/13 04:30:13;;;;;;;0.32;0.17;;;;;;;13.87;62.06;100034.63;4935767;28;99028;-71
2023/01/13 04:32:40;;;;;;;0.95;0.20;;;;;;;13.68;62.75;100036.69;4930155;28;96752;-70
2023/01/13 04:35:08;;;;;;;0.60;0.20;;;;;;;13.68;62.96;100034.03;4927373;28;97699;-71
2023/01/13 04:37:35;;;;;;;1.30;0.20;;;;;;;13.65;63.17;100025.41;4935080;28;99110;-71
2023/01/13 04:40:01;;;;;;;0.52;0.13;;;;;;;13.51;63.49;100034.19;4929931;28;100967;-70
2023/01/13 04:42:27;;;;;;;0.30;0.20;;;;;;;13.46;63.88;100036.22;4932422;28;97190;-70
2023/01/13 04:44:55;;;;;;;1.17;0.10;;;;;;;13.39;63.71;100019.81;4926161;28;96954;-70
2023/01/13 04:47:21;;;;;;;0.98;0.10;;;;;;;13.36;64.08;100030.63;4941142;28;98947;-71
2023/01/13 04:49:48;;;;;;;0.52;0.10;;;;;;;13.35;64.00;100034.22;4931747;28;99570;-72
2023/01/13 04:52:16;;;;;;;0.57;0.20;;;;;;;13.20;64.58;100044.84;4937217;28;96793;-70
2023/01/13 04:54:42;;;;;;;0.20;0.10;;;;;;;13.50;63.63;100041.28;4931650;28;96978;-70
2023/01/13 04:57:08;;;;;;;0.20;0.20;;;;;;;13.55;63.57;100047.16;4935988;28;98988;-71
2023/01/13 04:59:35;;;;;;;1.52;0.57;;;;;;;13.52;63.73;100046.50;4939067;28;99043;-72
2023/01/13 05:02:01;;;;;;;2.65;0.20;;;;;;;13.49;63.60;100046.69;4925348;28;98727;-71
2023/01/13 05:04:28;;;;;;;4.63;0.20;;;;;;;13.35;63.95;100038.66;4931299;28;97452;-71
2023/01/13 05:06:54;;;;;;;1.27;0.20;;;;;;;13.35;64.21;100054.56;4928311;28;98956;-71
2023/01/13 05:09:22;;;;;;;1.05;0.20;;;;;;;13.42;64.11;100054.13;4929148;28;98815;-72
2023/01/13 05:17:27;;;;;;;1.02;0.20;;;;;;;13.77;62.75;100061.84;4867053;28;99832;-71
2023/01/13 05:19:57;;;;;;;2.25;0.10;;;;;;;13.72;62.87;100072.72;4911256;28;98970;-72
2023/01/13 05:25:21;;;;;;;1.95;0.17;;;;;;;13.93;63.13;100073.25;4929945;28;96798;-71
2023/01/13 05:27:48;;;;;;;0.47;0.10;;;;;;;13.94;63.34;100065.19;4929834;28;99271;-72
2023/01/13 05:30:15;;;;;;;1.52;0.13;;;;;;;14.02;63.23;100067.41;4927851;28;98957;-71
2023/01/13 05:32:41;;;;;;;1.75;0.10;;;;;;;13.86;63.43;100070.09;4929402;28;96817;-71
2023/01/13 05:35:09;;;;;;;1.60;0.45;;;;;;;14.03;63.30;100073.56;4924260;28;98794;-70
2023/01/13 05:37:35;;;;;;;0.20;0.10;;;;;;;13.98;63.30;100074.69;4931122;28;99138;-71
2023/01/13 05:45:31;;;;;;;3.15;0.28;;;;;;;14.06;63.17;100076.03;4930773;28;96982;-70
2023/01/13 05:47:58;;;;;;;0.95;0.50;;;;;;;14.18;62.85;100072.63;4933810;28;97811;-71
2023/01/13 05:50:25;;;;;;;2.00;0.35;;;;;;;14.23;62.71;100084.69;4932881;28;98894;-70
2023/01/13 05:52:51;;;;;;;1.20;0.20;;;;;;;14.35;62.24;100086.59;4927542;28;96870;-70
2023/01/13 05:55:18;;;;;;;0.30;0.30;;;;;;;14.27;62.79;100101.28;4925904;28;97485;-72
2023/01/13 05:57:44;;;;;;;1.70;0.43;;;;;;;14.16;62.95;100111.72;4925397;28;99184;-70
2023/01/13 06:00:13;;;;;;;1.00;0.20;;;;;;;14.19;63.06;100115.03;4932065;28;99405;-70
2023/01/13 06:02:39;;;;;;;0.30;0.30;;;;;;;14.12;63.42;100107.53;4930274;28;96969;-70
2023/01/13 06:05:06;;;;;;;0.60;0.30;;;;;;;13.98;63.95;100109.22;4938311;28;96931;-71
2023/01/13 06:07:33;;;;;;;1.50;0.50;;;;;;;13.88;64.08;100096.56;4923888;28;98909;-71
2023/01/13 06:09:59;;;;;;;0.40;0.22;;;;;;;14.10;63.74;100093.50;4940425;28;100276;-71
2023/01/13 06:12:25;;;;;;;0.20;0.13;;;;;;;14.03;63.70;100085.03;4928320;28;96802;-71
2023/01/13 06:14:52;;;;;;;0.30;0.20;;;;;;;14.20;63.10;100081.34;4925038;28;97215;-71
2023/01/13 06:17:20;;;;;;;1.60;0.30;;;;;;;14.23;62.82;100083.84;4928594;28;101410;-71
2023/01/13 06:19:46;;;;;;;0.30;0.22;;;;;;;14.15;62.86;100094.94;4924212;28;98973;-70
2023/01/13 06:22:16;;;;;;;0.40;0.25;;;;;;;14.22;62.47;100103.38;4929293;28;97257;-71
2023/01/13 06:24:44;;;;;;;0.52;0.20;;;;;;;14.14;62.59;100109.16;4930964;28;98803;-72
2023/01/13 06:27:12;;;;;;;0.60;0.20;;;;;;;14.33;62.24;100100.91;4928208;28;99801;-72
2023/01/13 06:29:38;;;;;;;1.50;0.40;;;;;;;14.25;61.82;100101.38;4933359;28;99207;-71
2023/01/13 06:32:10;;;;;;;1.77;0.47;;;;;;;14.39;61.81;100100.56;4925731;28;97386;-71
2023/01/13 06:34:39;;;;;;;5.13;0.43;;;;;;;14.45;60.98;100100.19;4925822;28;97168;-71
2023/01/13 06:37:06;;;;;;;1.23;0.32;;;;;;;14.64;60.78;100098.09;4918254;28;98265;-71
2023/01/13 06:39:34;;;;;;;2.20;0.47;;;;;;;14.60;60.38;100096.59;4930362;28;98813;-73
2023/01/13 06:44:47;;;;;;;0.57;0.20;;;;;;;14.41;60.88;100093.38;4928270;28;97226;-72
2023/01/13 06:47:13;;;;;;;2.30;0.20;;;;;;;14.29;60.97;100080.81;4930747;28;99129;-70
2023/01/13 06:49:41;;;;;;;1.77;0.15;;;;;;;14.28;61.45;100073.78;4931127;28;99365;-71
2023/01/13 06:52:07;;;;;;;1.52;0.20;;;;;;;14.23;61.82;100055.47;4928108;28;97212;-71
2023/01/13 06:54:34;;;;;;;2.15;0.20;;;;;;;14.42;61.18;100063.19;4931923;28;97732;-72
2023/01/13 06:57:01;;;;;;;0.40;0.17;;;;;;;14.37;61.69;100073.22;4925884;28;99064;-71
2023/01/13 06:59:27;;;;;;;0.50;0.40;;;;;;;14.25;62.54;100081.94;4925880;28;100101;-71
2023/01/13 07:01:54;;;;;;;1.23;0.28;;;;;;;14.27;62.63;100082.69;4931757;28;97562;-72
2023/01/13 07:04:20;;;;;;;2.30;0.40;;;;;;;14.10;63.25;100085.53;4924500;28;99184;-73
2023/01/13 07:06:48;;;;;;;1.58;0.95;;;;;;;14.09;63.26;100084.69;4920740;28;98942;-71
2023/01/13 07:09:14;;;;;;;0.57;0.20;;;;;;;14.23;62.77;100089.16;4925976;28;98927;-70
2023/01/13 07:11:41;;;;;;;0.55;0.25;;;;;;;14.15;63.22;100084.31;4926558;28;97319;-71
2023/01/13 07:16:51;;;;;;;0.70;0.30;;;;;;;14.08;63.26;100084.75;4926511;28;97288;-71
2023/01/13 07:19:22;;;;;;;1.10;0.50;;;;;;;14.11;62.83;100072.13;4923723;28;98910;-71
2023/01/13 07:21:51;;;;;;;1.50;0.30;;;;;;;14.17;62.21;100063.81;4935104;28;96807;-72
2023/01/13 07:24:17;;;;;;;1.38;0.20;;;;;;;14.26;62.30;100063.25;4927867;28;97826;-71
2023/01/13 07:26:44;;;;;;;3.33;0.77;;;;;;;14.30;62.15;100051.50;4928956;28;98996;-72
2023/01/13 07:29:11;;;;;;;1.95;0.95;;;;;;;14.22;62.04;100058.22;4930925;28;98877;-72
2023/01/13 07:31:37;;;;;;;0.68;0.30;;;;;;;14.26;61.66;100083.63;4938521;28;96847;-71
2023/01/13 07:34:04;;;;;;;3.20;0.73;;;;;;;13.97;62.03;100077.44;4931720;28;97836;-72
2023/01/13 07:36:31;;;;;;;0.50;0.20;;;;;;;14.24;61.05;100069.63;4932038;28;99238;-71
2023/01/13 07:39:21;;;;;;;2.58;0.28;;;;;;;14.24;60.52;100082.91;4934280;28;98958;-72
2023/01/13 07:44:31;;;;;;;2.08;0.30;;;;;;;14.22;60.74;100080.31;4932714;28;97580;-71
2023/01/13 07:46:57;;;;;;;3.55;0.40;;;;;;;14.24;60.21;100088.22;4927770;28;99662;-72
2023/01/13 07:49:23;;;;;;;0.73;0.30;;;;;;;14.26;60.08;100095.13;4931377;28;99014;-72
2023/01/13 07:51:50;;;;;;;1.92;0.35;;;;;;;14.13;60.50;100095.97;4928727;28;97820;-71
2023/01/13 07:54:18;;;;;;;4.72;2.50;;;;;;;14.36;59.86;100106.06;4934298;28;97432;-70
2023/01/13 07:56:44;;;;;;;1.10;0.30;;;;;;;14.05;59.96;100111.50;4927101;28;98920;-72
2023/01/13 07:59:13;;;;;;;3.78;1.08;;;;;;;14.41;59.43;100100.50;4926722;28;99625;-70
2023/01/13 08:01:40;;;;;;;2.30;0.80;;;;;;;14.23;59.48;100099.78;4925816;28;98415;-70
2023/01/13 08:04:06;;;;;;;1.00;0.40;;;;;;;14.16;59.44;100096.66;4929503;28;98738;-71
2023/01/13 08:06:32;;;;;;;1.23;0.30;;;;;;;14.24;58.58;100098.84;4928524;28;102154;-71
2023/01/13 08:08:59;;;;;;;0.28;0.25;;;;;;;14.17;58.71;100126.72;4928903;28;99953;-69
2023/01/13 08:11:27;;;;;;;3.45;0.70;;;;;;;14.14;58.77;100142.84;4926195;28;98577;-69
2023/01/13 08:13:56;;;;;;;0.65;0.30;;;;;;;14.32;58.54;100128.44;4928810;28;98996;-70
2023/01/13 08:16:22;;;;;;;1.00;0.30;;;;;;;14.27;58.33;100131.38;4930130;28;98295;-71
2023/01/13 08:18:49;;;;;;;0.40;0.22;;;;;;;14.26;58.41;100132.31;4930618;28;99528;-70
2023/01/13 08:21:21;;;;;;;2.05;0.50;;;;;;;14.23;58.26;100142.31;4929131;28;97219;-70
2023/01/13 08:23:47;;;;;;;0.68;0.40;;;;;;;14.35;57.58;100154.84;4932096;28;96805;-69
2023/01/13 08:26:18;;;;;;;0.30;0.20;;;;;;;14.13;57.91;100149.94;4927659;28;99595;-70
2023/01/13 08:28:46;;;;;;;0.57;0.20;;;;;;;14.17;57.72;100155.97;4938952;28;100087;-69
2023/01/13 08:31:15;;;;;;;0.68;0.40;;;;;;;14.25;57.72;100146.56;4932585;28;97418;-70
2023/01/13 08:33:42;;;;;;;2.10;0.20;;;;;;;14.35;57.52;100138.91;4926862;28;98319;-70
2023/01/13 08:36:11;;;;;;;3.15;0.40;;;;;;;14.13;57.97;100141.13;4929526;28;98524;-69
2023/01/13 08:38:38;;;;;;;1.95;0.55;;;;;;;13.91;58.45;100138.91;4929399;28;98800;-68
2023/01/13 08:41:09;;;;;;;0.70;0.20;;;;;;;14.03;58.27;100132.88;4929589;28;97197;-70
2023/01/13 08:43:35;;;;;;;1.35;0.30;;;;;;;13.99;58.24;100141.94;4936009;28;96840;-70
2023/01/13 08:46:04;;;;;;;2.17;0.30;;;;;;;14.02;58.34;100140.91;4936825;28;99625;-71
2023/01/13 08:48:31;;;;;;;1.75;0.20;;;;;;;13.95;58.14;100122.69;4931369;28;98941;-70
2023/01/13 08:51:01;;;;;;;2.05;0.50;;;;;;;14.14;57.67;100149.00;4934821;28;97120;-70
2023/01/13 08:53:28;;;;;;;2.30;0.43;;;;;;;13.95;58.41;100161.66;4928112;28;97384;-70
2023/01/13 08:55:55;;;;;;;2.50;0.30;;;;;;;13.87;58.44;100174.53;4928256;28;101770;-70
2023/01/13 08:58:22;;;;;;;2.65;0.45;;;;;;;13.74;58.99;100178.84;4932114;28;99017;-71
2023/01/13 09:00:48;;;;;;;1.20;0.35;;;;;;;13.91;58.35;100171.59;4932862;28;97804;-69
2023/01/13 09:03:16;;;;;;;1.33;0.30;;;;;;;13.76;58.72;100171.66;4930078;28;98308;-70
2023/01/13 09:05:42;;;;;;;1.65;0.20;;;;;;;13.72;59.09;100168.28;4935219;28;97662;-70
2023/01/13 09:08:09;;;;;;;0.75;0.30;;;;;;;13.76;58.77;100129.16;4929635;28;98799;-71
2023/01/13 09:10:35;;;;;;;1.17;0.22;;;;;;;13.79;58.58;100113.91;4924773;28;97172;-70
2023/01/13 09:13:13;;;;;;;2.65;0.30;;;;;;;13.80;58.66;100101.47;4934606;28;96942;-70
2023/01/13 09:15:41;;;;;;;0.57;0.40;;;;;;;13.90;58.46;100010.56;4891710;28;1096161;-70
2023/01/13 09:18:07;;;;;;;4.57;0.40;;;;;;;14.06;57.34;100052.97;4931122;28;99878;-70
2023/01/13 09:20:35;;;;;;;0.85;0.40;;;;;;;14.15;56.91;100134.78;4937952;28;96723;-71
2023/01/13 09:23:02;;;;;;;1.25;0.40;;;;;;;14.11;57.22;100151.00;4933149;28;97633;-71
2023/01/13 09:25:28;;;;;;;3.47;0.55;;;;;;;14.22;57.13;100154.72;4935663;28;99173;-70
2023/01/13 09:27:55;;;;;;;0.98;0.40;;;;;;;13.98;57.11;100167.66;4933201;28;98796;-71
2023/01/13 09:30:22;;;;;;;3.08;0.60;;;;;;;14.27;56.31;100157.97;4935407;28;97381;-71
2023/01/13 09:32:48;;;;;;;0.47;0.20;;;;;;;14.41;55.83;100151.84;4930819;28;96974;-70
2023/01/13 09:35:16;;;;;;;8.77;2.00;;;;;;;14.07;56.23;100138.84;4939541;28;99238;-71
2023/01/13 09:37:43;;;;;;;1.85;0.40;;;;;;;14.16;56.04;100136.50;4932896;28;98916;-70
2023/01/13 09:40:17;;;;;;;2.58;0.52;;;;;;;14.10;55.89;100138.66;4941705;28;97202;-70
2023/01/13 09:45:36;;;;;;;1.77;0.40;;;;;;;13.93;56.63;100113.94;4939584;28;97701;-71
2023/01/13 09:48:12;;;;;;;1.90;0.40;;;;;;;13.87;56.60;100116.09;4930007;28;99198;-72
2023/01/13 09:50:51;;;;;;;4.65;0.70;;;;;;;13.89;57.04;100123.06;4932314;28;97775;-71
2023/01/13 09:53:22;;;;;;;1.95;0.57;;;;;;;13.71;57.69;100145.38;4926184;28;97390;-70
2023/01/13 09:55:48;;;;;;;6.68;0.50;;;;;;;13.48;58.64;100151.97;4929523;28;98680;-70
2023/01/13 09:58:17;;;;;;;2.28;0.40;;;;;;;13.67;58.52;100159.75;4936575;28;98097;-71
2023/01/13 10:00:51;;;;;;;2.45;0.35;;;;;;;13.80;57.82;100155.44;4935283;28;96761;-71
2023/01/13 10:03:21;;;;;;;1.75;0.68;;;;;;;13.79;57.98;100147.56;4924421;28;98070;-70
2023/01/13 10:05:55;;;;;;;1.67;0.50;;;;;;;13.99;57.59;100149.91;4933178;28;99787;-70
2023/01/13 10:08:26;;;;;;;0.95;0.60;;;;;;;14.01;57.32;100160.44;4934776;28;98823;-70
2023/01/13 10:10:55;;;;;;;1.20;0.70;;;;;;;14.04;57.21;100169.09;4928078;28;96697;-70
2023/01/13 10:13:23;;;;;;;2.28;0.45;;;;;;;13.47;56.88;100166.19;4931134;28;98073;-70
2023/01/13 10:16:18;;;;;;;2.63;0.57;;;;;;;13.55;57.11;100168.41;4922978;28;99494;-71
2023/01/13 10:18:56;;;;;;;2.35;0.40;;;;;;;13.68;56.68;100168.56;4929543;28;98807;-71
2023/01/13 10:21:58;;;;;;;1.85;0.40;;;;;;;13.93;55.76;100164.41;4940968;28;97344;-70
2023/01/13 10:24:34;;;;;;;4.38;0.65;;;;;;;14.13;55.12;100162.38;4927068;28;96891;-70
2023/01/13 10:27:04;;;;;;;1.35;0.35;;;;;;;14.08;54.60;100160.00;4934388;28;99087;-71
2023/01/13 10:29:34;;;;;;;1.65;0.45;;;;;;;13.83;54.92;100157.94;4934362;28;98996;-71
2023/01/13 10:32:00;;;;;;;2.03;0.45;;;;;;;13.86;55.00;100156.88;4935867;28;96816;-71
2023/01/13 10:34:28;;;;;;;2.22;0.30;;;;;;;13.80;54.95;100163.41;4929886;28;97255;-69
2023/01/13 10:36:59;;;;;;;6.88;1.05;;;;;;;13.91;54.34;100160.16;4933002;28;98777;-70
2023/01/13 10:39:27;;;;;;;5.43;0.77;;;;;;;14.04;53.77;100165.59;4932753;28;98771;-71
2023/01/13 10:42:03;;;;;;;3.55;1.10;;;;;;;14.11;53.36;100157.16;4935938;28;97394;-70
2023/01/13 10:44:30;;;;;;;9.82;0.60;;;;;;;14.25;52.67;100156.31;4927148;28;97314;-70
2023/01/13 10:46:58;;;;;;;4.68;0.50;;;;;;;14.18;52.91;100152.31;4931213;28;99319;-71
2023/01/13 10:49:31;;;;;;;4.03;0.40;;;;;;;14.07;52.93;100150.31;4935330;28;99787;-71
2023/01/13 10:51:58;;;;;;;2.55;0.35;;;;;;;13.92;53.55;100148.56;4934164;28;97359;-71
2023/01/13 10:54:26;;;;;;;3.03;0.55;;;;;;;13.86;53.96;100168.34;4935435;28;97830;-71
2023/01/13 10:57:18;;;;;;;2.72;0.38;;;;;;;13.73;54.32;100158.53;4930100;28;99163;-71
2023/01/13 10:59:44;;;;;;;2.63;0.40;;;;;;;13.62;54.31;100156.50;4928837;28;98143;-70
2023/01/13 11:02:25;;;;;;;1.65;0.30;;;;;;;13.64;54.31;100157.28;4922819;28;97307;-72
2023/01/13 11:05:03;;;;;;;2.38;0.40;;;;;;;13.76;53.79;100159.22;4932020;28;97137;-71
2023/01/13 11:07:32;;;;;;;1.75;0.47;;;;;;;13.83;53.66;100152.63;4929610;28;101578;-71
2023/01/13 11:10:16;;;;;;;1.88;0.30;;;;;;;13.78;54.12;100154.69;4928422;28;99259;-70
2023/01/13 11:12:48;;;;;;;2.75;0.47;;;;;;;13.82;53.79;100168.63;4929786;28;97181;-70
2023/01/13 11:15:19;;;;;;;1.80;0.35;;;;;;;13.80;54.18;100167.84;4929889;28;96924;-72
2023/01/13 11:17:52;;;;;;;1.20;0.50;;;;;;;14.10;53.22;100146.63;4927546;28;99409;-71
2023/01/13 11:20:28;;;;;;;2.03;0.40;;;;;;;13.96;52.66;100153.63;4931279;28;100125;-71
2023/01/13 11:22:58;;;;;;;2.22;0.60;;;;;;;14.03;52.74;100158.56;4934484;28;97170;-70
2023/01/13 11:25:32;;;;;;;1.45;0.50;;;;;;;14.13;51.77;100155.25;4922535;28;96974;-70
2023/01/13 11:28:04;;;;;;;1.02;0.40;;;;;;;13.86;51.69;100160.41;4937214;28;96716;-70
2023/01/13 11:30:42;;;;;;;2.97;0.40;;;;;;;13.93;51.28;100163.56;4935445;28;99849;-71
2023/01/13 11:33:28;;;;;;;2.20;0.45;;;;;;;14.05;50.63;100157.50;4937381;28;97339;-70
2023/01/13 11:36:06;;;;;;;3.13;0.68;;;;;;;14.10;51.09;100155.47;4933993;28;96810;-70
2023/01/13 11:38:44;;;;;;;2.13;0.50;;;;;;;14.27;50.98;100159.75;4935445;28;98539;-70
2023/01/13 11:41:23;;;;;;;2.47;0.75;;;;;;;14.18;50.44;100165.63;4933315;28;99312;-70
2023/01/13 11:43:53;;;;;;;2.47;0.63;;;;;;;14.20;49.94;100158.41;4938246;28;97165;-71
2023/01/13 11:46:25;;;;;;;3.97;0.52;;;;;;;14.02;49.77;100157.72;4934491;28;96822;-70
2023/01/13 11:48:55;;;;;;;2.53;0.60;;;;;;;14.07;50.09;100149.47;4935227;28;99148;-70
2023/01/13 11:51:30;;;;;;;2.28;0.50;;;;;;;14.23;49.05;100155.59;4931949;28;98948;-70
2023/01/13 11:54:28;;;;;;;1.60;0.50;;;;;;;13.76;49.67;100148.59;4932408;28;97158;-71
2023/01/13 11:57:17;;;;;;;3.10;0.80;;;;;;;13.86;49.18;100152.44;4939888;28;96724;-68
2023/01/13 12:00:18;;;;;;;1.70;0.50;;;;;;;13.82;48.99;100161.53;4931670;28;97704;-71
2023/01/13 12:02:53;;;;;;;1.73;0.57;;;;;;;13.54;49.38;100153.44;4874636;28;99156;-71
2023/01/13 12:05:28;;;;;;;4.68;0.50;;;;;;;13.40;49.75;100148.91;4921070;28;96956;-71
2023/01/13 12:08:03;;;;;;;3.67;0.77;;;;;;;13.34;49.30;100159.88;4930531;28;96837;-70
2023/01/13 12:10:43;;;;;;;10.27;0.73;;;;;;;13.57;48.52;100166.53;4930704;28;99234;-71